New Castle, Delaware
Current Conditions -  °F | °C
As of 6:51 PM on Wednesday 28 Jan 2015 (Local Time) from KILG Reporting Station
Clear Clear  
Wind Chill: 17°   Ceiling: Unl
Heat Index: 26°   Visibility: 10mi
Dew Point:   Wind: 9mph
Humidity: 41%   Direction: 300°WNW
Pressure: 30.26"   Gusts: NA
Location:  39.67°N, 75.57°W
Report Text: KILG 282351Z 30008KT 10SM CLR M03/M15 A3026 RMK AO2 SLP248 T10331150 10011 21033 53026
Loading
Personal Weather Stations






























Interactive Weather Map New forecast layout! Learn more

10-Day Weather Forecast

Advertisements
Track Severe Weather on mobile